sensor_id;sensor_type;location;lat;lon;timestamp;temperature;humidity
68215;DHT22;55036;52.138;5.236;2024-02-21T00:02:22;10.80;92.20
68215;DHT22;55036;52.138;5.236;2024-02-21T00:04:49;10.80;92.30
68215;DHT22;55036;52.138;5.236;2024-02-21T00:07:16;10.80;92.10
68215;DHT22;55036;52.138;5.236;2024-02-21T00:09:43;10.70;92.40
68215;DHT22;55036;52.138;5.236;2024-02-21T00:12:10;10.70;92.40
68215;DHT22;55036;52.138;5.236;2024-02-21T00:14:37;10.70;92.50
68215;DHT22;55036;52.138;5.236;2024-02-21T00:17:03;10.60;92.50
68215;DHT22;55036;52.138;5.236;2024-02-21T00:19:30;10.70;92.50
68215;DHT22;55036;52.138;5.236;2024-02-21T00:21:57;10.70;92.50
68215;DHT22;55036;52.138;5.236;2024-02-21T00:24:23;10.70;92.10
68215;DHT22;55036;52.138;5.236;2024-02-21T00:26:50;10.70;92.50
68215;DHT22;55036;52.138;5.236;2024-02-21T00:29:17;10.60;92.60
68215;DHT22;55036;52.138;5.236;2024-02-21T00:31:43;10.60;92.70
68215;DHT22;55036;52.138;5.236;2024-02-21T00:34:11;10.70;92.50
68215;DHT22;55036;52.138;5.236;2024-02-21T00:36:39;10.70;92.60
68215;DHT22;55036;52.138;5.236;2024-02-21T00:39:06;10.70;92.60
68215;DHT22;55036;52.138;5.236;2024-02-21T00:41:33;10.70;92.60
68215;DHT22;55036;52.138;5.236;2024-02-21T00:43:59;10.80;92.40
68215;DHT22;55036;52.138;5.236;2024-02-21T00:46:26;10.80;92.50
68215;DHT22;55036;52.138;5.236;2024-02-21T00:48:53;10.80;92.40
68215;DHT22;55036;52.138;5.236;2024-02-21T00:51:20;10.80;92.50
68215;DHT22;55036;52.138;5.236;2024-02-21T00:53:47;10.90;92.50
68215;DHT22;55036;52.138;5.236;2024-02-21T00:56:13;10.90;92.40
68215;DHT22;55036;52.138;5.236;2024-02-21T00:58:40;10.80;92.70
68215;DHT22;55036;52.138;5.236;2024-02-21T01:01:07;10.90;92.40
68215;DHT22;55036;52.138;5.236;2024-02-21T01:03:34;11.00;92.30
68215;DHT22;55036;52.138;5.236;2024-02-21T01:06:00;10.90;92.30
68215;DHT22;55036;52.138;5.236;2024-02-21T01:08:27;10.90;92.60
68215;DHT22;55036;52.138;5.236;2024-02-21T01:10:54;10.90;92.40
68215;DHT22;55036;52.138;5.236;2024-02-21T01:13:21;10.80;92.50
68215;DHT22;55036;52.138;5.236;2024-02-21T01:15:48;10.80;92.70
68215;DHT22;55036;52.138;5.236;2024-02-21T01:18:14;10.80;92.40
68215;DHT22;55036;52.138;5.236;2024-02-21T01:20:41;10.80;92.40
68215;DHT22;55036;52.138;5.236;2024-02-21T01:23:08;10.80;92.40
68215;DHT22;55036;52.138;5.236;2024-02-21T01:25:34;10.80;92.60
68215;DHT22;55036;52.138;5.236;2024-02-21T01:28:01;10.80;92.70
68215;DHT22;55036;52.138;5.236;2024-02-21T01:30:28;10.80;92.70
68215;DHT22;55036;52.138;5.236;2024-02-21T01:32:55;10.90;92.50
68215;DHT22;55036;52.138;5.236;2024-02-21T01:35:21;10.90;92.50
68215;DHT22;55036;52.138;5.236;2024-02-21T01:37:48;10.80;92.60
68215;DHT22;55036;52.138;5.236;2024-02-21T01:40:15;10.80;92.40
68215;DHT22;55036;52.138;5.236;2024-02-21T01:42:42;10.90;92.50
68215;DHT22;55036;52.138;5.236;2024-02-21T01:45:10;10.80;92.40
68215;DHT22;55036;52.138;5.236;2024-02-21T01:47:37;10.80;92.50
68215;DHT22;55036;52.138;5.236;2024-02-21T01:50:04;10.80;92.60
68215;DHT22;55036;52.138;5.236;2024-02-21T01:52:31;10.80;92.50
68215;DHT22;55036;52.138;5.236;2024-02-21T01:55:00;10.80;92.30
68215;DHT22;55036;52.138;5.236;2024-02-21T01:57:27;10.80;92.60
68215;DHT22;55036;52.138;5.236;2024-02-21T01:59:55;10.80;92.70
68215;DHT22;55036;52.138;5.236;2024-02-21T02:02:22;10.90;92.50
68215;DHT22;55036;52.138;5.236;2024-02-21T02:04:49;10.80;92.70
68215;DHT22;55036;52.138;5.236;2024-02-21T02:07:17;10.70;92.60
68215;DHT22;55036;52.138;5.236;2024-02-21T02:09:43;10.70;92.70
68215;DHT22;55036;52.138;5.236;2024-02-21T02:12:10;10.80;92.60
68215;DHT22;55036;52.138;5.236;2024-02-21T02:14:37;10.80;92.60
68215;DHT22;55036;52.138;5.236;2024-02-21T02:17:04;10.70;92.70
68215;DHT22;55036;52.138;5.236;2024-02-21T02:19:31;10.80;92.60
68215;DHT22;55036;52.138;5.236;2024-02-21T02:22:09;10.80;92.40
68215;DHT22;55036;52.138;5.236;2024-02-21T02:24:38;10.80;92.60
68215;DHT22;55036;52.138;5.236;2024-02-21T02:27:04;10.80;92.80
68215;DHT22;55036;52.138;5.236;2024-02-21T02:29:32;10.80;92.60
68215;DHT22;55036;52.138;5.236;2024-02-21T02:31:59;10.90;92.60
68215;DHT22;55036;52.138;5.236;2024-02-21T02:34:26;10.90;92.40
68215;DHT22;55036;52.138;5.236;2024-02-21T02:36:52;10.80;92.70
68215;DHT22;55036;52.138;5.236;2024-02-21T02:39:21;10.80;92.40
68215;DHT22;55036;52.138;5.236;2024-02-21T02:41:47;10.80;92.50
68215;DHT22;55036;52.138;5.236;2024-02-21T02:44:14;10.80;92.60
68215;DHT22;55036;52.138;5.236;2024-02-21T02:46:41;10.80;92.50
68215;DHT22;55036;52.138;5.236;2024-02-21T02:49:08;10.70;92.50
68215;DHT22;55036;52.138;5.236;2024-02-21T02:51:35;10.70;92.70
68215;DHT22;55036;52.138;5.236;2024-02-21T02:54:02;10.70;92.80
68215;DHT22;55036;52.138;5.236;2024-02-21T02:56:29;10.70;92.70
68215;DHT22;55036;52.138;5.236;2024-02-21T02:58:56;10.70;92.60
68215;DHT22;55036;52.138;5.236;2024-02-21T03:01:23;10.80;92.70
68215;DHT22;55036;52.138;5.236;2024-02-21T03:03:50;10.80;92.70
68215;DHT22;55036;52.138;5.236;2024-02-21T03:06:16;10.80;92.50
68215;DHT22;55036;52.138;5.236;2024-02-21T03:08:43;10.80;92.60
68215;DHT22;55036;52.138;5.236;2024-02-21T03:11:10;10.90;92.50
68215;DHT22;55036;52.138;5.236;2024-02-21T03:13:38;10.90;92.30
68215;DHT22;55036;52.138;5.236;2024-02-21T03:16:05;10.80;92.30
68215;DHT22;55036;52.138;5.236;2024-02-21T03:18:32;10.70;92.50
68215;DHT22;55036;52.138;5.236;2024-02-21T03:20:59;10.70;92.60
68215;DHT22;55036;52.138;5.236;2024-02-21T03:23:26;10.80;92.40
68215;DHT22;55036;52.138;5.236;2024-02-21T03:25:52;10.70;92.50
68215;DHT22;55036;52.138;5.236;2024-02-21T03:28:19;10.80;92.60
68215;DHT22;55036;52.138;5.236;2024-02-21T03:30:46;10.80;92.50
68215;DHT22;55036;52.138;5.236;2024-02-21T03:33:13;10.70;92.70
68215;DHT22;55036;52.138;5.236;2024-02-21T03:35:39;10.80;92.60
68215;DHT22;55036;52.138;5.236;2024-02-21T03:38:06;10.70;92.60
68215;DHT22;55036;52.138;5.236;2024-02-21T03:40:33;10.80;92.60
68215;DHT22;55036;52.138;5.236;2024-02-21T03:43:00;10.80;92.30
68215;DHT22;55036;52.138;5.236;2024-02-21T03:45:26;10.70;92.50
68215;DHT22;55036;52.138;5.236;2024-02-21T03:47:53;10.70;92.60
68215;DHT22;55036;52.138;5.236;2024-02-21T03:50:20;10.80;92.50
68215;DHT22;55036;52.138;5.236;2024-02-21T03:52:47;10.80;92.40
68215;DHT22;55036;52.138;5.236;2024-02-21T03:55:14;10.80;92.40
68215;DHT22;55036;52.138;5.236;2024-02-21T03:57:41;10.70;92.50
68215;DHT22;55036;52.138;5.236;2024-02-21T04:00:08;10.70;92.60
68215;DHT22;55036;52.138;5.236;2024-02-21T04:02:37;10.70;92.50
68215;DHT22;55036;52.138;5.236;2024-02-21T04:05:04;10.70;92.60
68215;DHT22;55036;52.138;5.236;2024-02-21T04:07:31;10.70;92.50
68215;DHT22;55036;52.138;5.236;2024-02-21T04:09:58;10.70;92.60
68215;DHT22;55036;52.138;5.236;2024-02-21T04:12:25;10.70;92.60
68215;DHT22;55036;52.138;5.236;2024-02-21T04:14:52;10.70;92.60
68215;DHT22;55036;52.138;5.236;2024-02-21T04:17:18;10.80;92.40
68215;DHT22;55036;52.138;5.236;2024-02-21T04:19:45;10.80;92.00
68215;DHT22;55036;52.138;5.236;2024-02-21T04:22:12;10.60;92.30
68215;DHT22;55036;52.138;5.236;2024-02-21T04:24:39;10.60;92.50
68215;DHT22;55036;52.138;5.236;2024-02-21T04:27:05;10.60;92.70
68215;DHT22;55036;52.138;5.236;2024-02-21T04:29:32;10.60;92.50
68215;DHT22;55036;52.138;5.236;2024-02-21T04:32:01;10.60;92.50
68215;DHT22;55036;52.138;5.236;2024-02-21T04:34:28;10.60;92.40
68215;DHT22;55036;52.138;5.236;2024-02-21T04:36:55;10.60;92.60
68215;DHT22;55036;52.138;5.236;2024-02-21T04:39:21;10.60;92.30
68215;DHT22;55036;52.138;5.236;2024-02-21T04:41:48;10.60;92.50
68215;DHT22;55036;52.138;5.236;2024-02-21T04:44:15;10.70;92.20
68215;DHT22;55036;52.138;5.236;2024-02-21T04:46:43;10.60;92.30
68215;DHT22;55036;52.138;5.236;2024-02-21T04:49:09;10.60;92.40
68215;DHT22;55036;52.138;5.236;2024-02-21T04:51:36;10.60;92.40
68215;DHT22;55036;52.138;5.236;2024-02-21T04:54:03;10.50;92.50
68215;DHT22;55036;52.138;5.236;2024-02-21T04:56:30;10.60;92.50
68215;DHT22;55036;52.138;5.236;2024-02-21T04:58:57;10.50;92.30
68215;DHT22;55036;52.138;5.236;2024-02-21T05:01:24;10.50;92.60
68215;DHT22;55036;52.138;5.236;2024-02-21T05:03:51;10.60;92.60
68215;DHT22;55036;52.138;5.236;2024-02-21T05:06:17;10.60;92.40
68215;DHT22;55036;52.138;5.236;2024-02-21T05:08:44;10.50;92.40
68215;DHT22;55036;52.138;5.236;2024-02-21T05:11:11;10.50;92.50
68215;DHT22;55036;52.138;5.236;2024-02-21T05:13:38;10.60;92.30
68215;DHT22;55036;52.138;5.236;2024-02-21T05:16:05;10.60;92.30
68215;DHT22;55036;52.138;5.236;2024-02-21T05:18:33;10.60;92.10
68215;DHT22;55036;52.138;5.236;2024-02-21T05:21:01;10.50;92.60
68215;DHT22;55036;52.138;5.236;2024-02-21T05:23:27;10.50;92.60
68215;DHT22;55036;52.138;5.236;2024-02-21T05:25:54;10.50;92.60
68215;DHT22;55036;52.138;5.236;2024-02-21T05:28:21;10.60;92.20
68215;DHT22;55036;52.138;5.236;2024-02-21T05:30:48;10.60;92.40
68215;DHT22;55036;52.138;5.236;2024-02-21T05:33:14;10.60;92.40
68215;DHT22;55036;52.138;5.236;2024-02-21T05:35:48;10.50;92.50
68215;DHT22;55036;52.138;5.236;2024-02-21T05:38:15;10.50;92.50
68215;DHT22;55036;52.138;5.236;2024-02-21T05:40:42;10.60;92.50
68215;DHT22;55036;52.138;5.236;2024-02-21T05:43:08;10.60;92.50
68215;DHT22;55036;52.138;5.236;2024-02-21T05:45:35;10.60;92.40
68215;DHT22;55036;52.138;5.236;2024-02-21T05:48:03;10.60;92.40
68215;DHT22;55036;52.138;5.236;2024-02-21T05:50:30;10.70;92.40
68215;DHT22;55036;52.138;5.236;2024-02-21T05:52:58;10.70;92.20
68215;DHT22;55036;52.138;5.236;2024-02-21T05:55:25;10.70;92.20
68215;DHT22;55036;52.138;5.236;2024-02-21T05:57:54;10.60;92.40
68215;DHT22;55036;52.138;5.236;2024-02-21T06:00:21;10.70;92.30
68215;DHT22;55036;52.138;5.236;2024-02-21T06:02:48;10.70;92.30
68215;DHT22;55036;52.138;5.236;2024-02-21T06:05:15;10.80;92.20
68215;DHT22;55036;52.138;5.236;2024-02-21T06:07:42;10.70;92.20
68215;DHT22;55036;52.138;5.236;2024-02-21T06:10:09;10.70;92.20
68215;DHT22;55036;52.138;5.236;2024-02-21T06:12:36;10.70;92.30
68215;DHT22;55036;52.138;5.236;2024-02-21T06:15:03;10.80;92.10
68215;DHT22;55036;52.138;5.236;2024-02-21T06:17:29;10.80;92.10
68215;DHT22;55036;52.138;5.236;2024-02-21T06:19:56;10.80;92.10
68215;DHT22;55036;52.138;5.236;2024-02-21T06:22:23;10.80;92.10
68215;DHT22;55036;52.138;5.236;2024-02-21T06:24:50;10.80;92.30
68215;DHT22;55036;52.138;5.236;2024-02-21T06:27:17;10.90;91.90
68215;DHT22;55036;52.138;5.236;2024-02-21T06:29:44;10.80;92.00
68215;DHT22;55036;52.138;5.236;2024-02-21T06:32:10;10.80;92.40
68215;DHT22;55036;52.138;5.236;2024-02-21T06:34:37;10.80;91.80
68215;DHT22;55036;52.138;5.236;2024-02-21T06:37:04;10.70;91.70
68215;DHT22;55036;52.138;5.236;2024-02-21T06:39:31;10.70;92.00
68215;DHT22;55036;52.138;5.236;2024-02-21T06:41:58;10.70;92.00
68215;DHT22;55036;52.138;5.236;2024-02-21T06:44:29;10.60;92.20
68215;DHT22;55036;52.138;5.236;2024-02-21T06:46:56;10.60;92.20
68215;DHT22;55036;52.138;5.236;2024-02-21T06:49:22;10.60;92.20
68215;DHT22;55036;52.138;5.236;2024-02-21T06:51:49;10.60;92.00
68215;DHT22;55036;52.138;5.236;2024-02-21T06:54:16;10.60;92.20
68215;DHT22;55036;52.138;5.236;2024-02-21T06:56:43;10.60;91.90
68215;DHT22;55036;52.138;5.236;2024-02-21T06:59:10;10.60;92.20
68215;DHT22;55036;52.138;5.236;2024-02-21T07:01:37;10.60;91.90
68215;DHT22;55036;52.138;5.236;2024-02-21T07:04:04;10.60;92.20
68215;DHT22;55036;52.138;5.236;2024-02-21T07:06:31;10.60;91.90
68215;DHT22;55036;52.138;5.236;2024-02-21T07:09:01;10.60;92.10
68215;DHT22;55036;52.138;5.236;2024-02-21T07:11:28;10.60;92.30
68215;DHT22;55036;52.138;5.236;2024-02-21T07:13:55;10.60;92.00
68215;DHT22;55036;52.138;5.236;2024-02-21T07:16:22;10.60;92.00
68215;DHT22;55036;52.138;5.236;2024-02-21T07:18:48;10.70;92.00
68215;DHT22;55036;52.138;5.236;2024-02-21T07:21:15;10.60;91.90
68215;DHT22;55036;52.138;5.236;2024-02-21T07:23:42;10.60;92.00
68215;DHT22;55036;52.138;5.236;2024-02-21T07:26:09;10.60;91.80
68215;DHT22;55036;52.138;5.236;2024-02-21T07:28:36;10.60;91.90
68215;DHT22;55036;52.138;5.236;2024-02-21T07:31:03;10.60;91.80
68215;DHT22;55036;52.138;5.236;2024-02-21T07:33:30;10.50;92.00
68215;DHT22;55036;52.138;5.236;2024-02-21T07:35:57;10.60;92.10
68215;DHT22;55036;52.138;5.236;2024-02-21T07:38:24;10.60;92.00
68215;DHT22;55036;52.138;5.236;2024-02-21T07:40:50;10.70;91.90
68215;DHT22;55036;52.138;5.236;2024-02-21T07:43:17;10.60;91.80
68215;DHT22;55036;52.138;5.236;2024-02-21T07:45:44;10.60;91.80
68215;DHT22;55036;52.138;5.236;2024-02-21T07:48:11;10.70;91.80
68215;DHT22;55036;52.138;5.236;2024-02-21T07:50:38;10.70;91.60
68215;DHT22;55036;52.138;5.236;2024-02-21T07:53:04;10.70;91.90
68215;DHT22;55036;52.138;5.236;2024-02-21T07:55:31;10.70;91.60
68215;DHT22;55036;52.138;5.236;2024-02-21T07:57:58;10.70;91.70
68215;DHT22;55036;52.138;5.236;2024-02-21T08:00:25;10.80;91.50
68215;DHT22;55036;52.138;5.236;2024-02-21T08:02:52;10.70;91.60
68215;DHT22;55036;52.138;5.236;2024-02-21T08:05:18;10.70;91.70
68215;DHT22;55036;52.138;5.236;2024-02-21T08:07:45;10.70;91.60
68215;DHT22;55036;52.138;5.236;2024-02-21T08:10:12;10.60;91.80
68215;DHT22;55036;52.138;5.236;2024-02-21T08:12:39;10.70;91.80
68215;DHT22;55036;52.138;5.236;2024-02-21T08:15:06;10.60;91.60
68215;DHT22;55036;52.138;5.236;2024-02-21T08:17:35;10.60;91.70
68215;DHT22;55036;52.138;5.236;2024-02-21T08:20:02;10.60;91.60
68215;DHT22;55036;52.138;5.236;2024-02-21T08:22:29;10.60;91.80
68215;DHT22;55036;52.138;5.236;2024-02-21T08:24:56;10.60;91.80
68215;DHT22;55036;52.138;5.236;2024-02-21T08:27:23;10.60;91.80
68215;DHT22;55036;52.138;5.236;2024-02-21T08:29:50;10.70;91.80
68215;DHT22;55036;52.138;5.236;2024-02-21T08:32:17;10.70;91.70
68215;DHT22;55036;52.138;5.236;2024-02-21T08:34:43;10.70;91.60
68215;DHT22;55036;52.138;5.236;2024-02-21T08:37:10;10.70;91.50
68215;DHT22;55036;52.138;5.236;2024-02-21T08:39:37;10.70;91.60
68215;DHT22;55036;52.138;5.236;2024-02-21T08:42:05;10.70;91.80
68215;DHT22;55036;52.138;5.236;2024-02-21T08:44:31;10.80;91.60
68215;DHT22;55036;52.138;5.236;2024-02-21T08:46:58;10.90;91.50
68215;DHT22;55036;52.138;5.236;2024-02-21T08:49:25;10.90;91.50
68215;DHT22;55036;52.138;5.236;2024-02-21T08:52:00;10.90;91.20
68215;DHT22;55036;52.138;5.236;2024-02-21T08:54:27;10.80;91.40
68215;DHT22;55036;52.138;5.236;2024-02-21T08:56:54;10.80;91.10
68215;DHT22;55036;52.138;5.236;2024-02-21T08:59:21;10.80;91.30
68215;DHT22;55036;52.138;5.236;2024-02-21T09:01:48;10.80;91.40
68215;DHT22;55036;52.138;5.236;2024-02-21T09:04:14;10.90;91.40
68215;DHT22;55036;52.138;5.236;2024-02-21T09:06:41;10.90;91.10
68215;DHT22;55036;52.138;5.236;2024-02-21T09:09:09;10.90;91.30
68215;DHT22;55036;52.138;5.236;2024-02-21T09:11:36;11.00;91.20
68215;DHT22;55036;52.138;5.236;2024-02-21T09:14:03;11.10;91.10
68215;DHT22;55036;52.138;5.236;2024-02-21T09:16:31;11.10;90.50
68215;DHT22;55036;52.138;5.236;2024-02-21T09:18:59;11.00;90.90
68215;DHT22;55036;52.138;5.236;2024-02-21T09:21:27;11.00;90.70
68215;DHT22;55036;52.138;5.236;2024-02-21T09:23:54;11.00;91.00
68215;DHT22;55036;52.138;5.236;2024-02-21T09:26:25;11.00;90.60
68215;DHT22;55036;52.138;5.236;2024-02-21T09:28:52;11.00;91.00
68215;DHT22;55036;52.138;5.236;2024-02-21T09:31:19;11.00;90.50
68215;DHT22;55036;52.138;5.236;2024-02-21T09:33:46;11.00;90.40
68215;DHT22;55036;52.138;5.236;2024-02-21T09:36:13;11.00;90.70
68215;DHT22;55036;52.138;5.236;2024-02-21T09:38:40;10.90;90.20
68215;DHT22;55036;52.138;5.236;2024-02-21T09:41:18;11.00;91.00
68215;DHT22;55036;52.138;5.236;2024-02-21T09:43:51;11.00;90.40
68215;DHT22;55036;52.138;5.236;2024-02-21T09:46:25;11.00;89.90
68215;DHT22;55036;52.138;5.236;2024-02-21T09:49:14;10.90;90.30
68215;DHT22;55036;52.138;5.236;2024-02-21T09:51:45;11.00;90.00
68215;DHT22;55036;52.138;5.236;2024-02-21T09:54:13;11.00;90.20
68215;DHT22;55036;52.138;5.236;2024-02-21T09:56:45;11.00;90.00
68215;DHT22;55036;52.138;5.236;2024-02-21T09:59:16;11.10;90.20
68215;DHT22;55036;52.138;5.236;2024-02-21T10:01:43;11.10;89.60
68215;DHT22;55036;52.138;5.236;2024-02-21T10:04:11;11.20;89.80
68215;DHT22;55036;52.138;5.236;2024-02-21T10:06:38;11.20;89.20
68215;DHT22;55036;52.138;5.236;2024-02-21T10:09:06;11.20;89.20
68215;DHT22;55036;52.138;5.236;2024-02-21T10:11:33;11.20;89.20
68215;DHT22;55036;52.138;5.236;2024-02-21T10:14:04;11.20;89.20
68215;DHT22;55036;52.138;5.236;2024-02-21T10:16:32;11.20;88.90
68215;DHT22;55036;52.138;5.236;2024-02-21T10:19:00;11.30;88.70
68215;DHT22;55036;52.138;5.236;2024-02-21T10:21:26;11.40;87.60
68215;DHT22;55036;52.138;5.236;2024-02-21T10:23:53;11.30;89.50
68215;DHT22;55036;52.138;5.236;2024-02-21T10:26:20;11.40;89.10
68215;DHT22;55036;52.138;5.236;2024-02-21T10:28:48;11.40;87.40
68215;DHT22;55036;52.138;5.236;2024-02-21T10:31:22;11.60;87.80
68215;DHT22;55036;52.138;5.236;2024-02-21T10:33:57;11.70;88.50
68215;DHT22;55036;52.138;5.236;2024-02-21T10:36:25;11.80;88.10
68215;DHT22;55036;52.138;5.236;2024-02-21T10:38:53;11.80;87.10
68215;DHT22;55036;52.138;5.236;2024-02-21T10:41:22;11.90;86.50
68215;DHT22;55036;52.138;5.236;2024-02-21T10:43:51;11.80;86.50
68215;DHT22;55036;52.138;5.236;2024-02-21T10:46:22;11.80;86.90
68215;DHT22;55036;52.138;5.236;2024-02-21T10:49:01;11.80;86.00
68215;DHT22;55036;52.138;5.236;2024-02-21T10:51:33;11.70;86.20
68215;DHT22;55036;52.138;5.236;2024-02-21T10:54:36;11.60;86.30
68215;DHT22;55036;52.138;5.236;2024-02-21T10:57:06;11.70;86.10
68215;DHT22;55036;52.138;5.236;2024-02-21T10:59:37;11.80;87.10
68215;DHT22;55036;52.138;5.236;2024-02-21T11:02:04;11.80;86.30
68215;DHT22;55036;52.138;5.236;2024-02-21T11:04:33;11.80;86.80
68215;DHT22;55036;52.138;5.236;2024-02-21T11:07:06;11.80;86.50
68215;DHT22;55036;52.138;5.236;2024-02-21T11:09:37;11.80;87.10
68215;DHT22;55036;52.138;5.236;2024-02-21T11:12:05;11.80;87.00
68215;DHT22;55036;52.138;5.236;2024-02-21T11:14:33;11.70;86.90
68215;DHT22;55036;52.138;5.236;2024-02-21T11:17:02;11.80;86.80
68215;DHT22;55036;52.138;5.236;2024-02-21T11:19:30;11.70;86.80
68215;DHT22;55036;52.138;5.236;2024-02-21T11:21:58;11.60;87.20
68215;DHT22;55036;52.138;5.236;2024-02-21T11:24:33;11.60;87.30
68215;DHT22;55036;52.138;5.236;2024-02-21T11:27:13;11.50;87.40
68215;DHT22;55036;52.138;5.236;2024-02-21T11:29:45;11.40;87.90
68215;DHT22;55036;52.138;5.236;2024-02-21T11:32:19;11.40;87.50
68215;DHT22;55036;52.138;5.236;2024-02-21T11:34:56;11.40;88.10
68215;DHT22;55036;52.138;5.236;2024-02-21T11:37:31;11.50;88.10
68215;DHT22;55036;52.138;5.236;2024-02-21T11:40:00;11.50;87.70
68215;DHT22;55036;52.138;5.236;2024-02-21T11:42:27;11.50;87.70
68215;DHT22;55036;52.138;5.236;2024-02-21T11:44:56;11.30;87.60
68215;DHT22;55036;52.138;5.236;2024-02-21T11:47:24;11.30;88.10
68215;DHT22;55036;52.138;5.236;2024-02-21T11:49:51;11.40;88.10
68215;DHT22;55036;52.138;5.236;2024-02-21T11:52:25;11.40;88.20
68215;DHT22;55036;52.138;5.236;2024-02-21T11:54:53;11.40;88.20
68215;DHT22;55036;52.138;5.236;2024-02-21T11:57:21;11.40;88.30
68215;DHT22;55036;52.138;5.236;2024-02-21T11:59:48;11.50;87.70
68215;DHT22;55036;52.138;5.236;2024-02-21T12:02:19;11.40;88.20
68215;DHT22;55036;52.138;5.236;2024-02-21T12:04:46;11.50;88.00
68215;DHT22;55036;52.138;5.236;2024-02-21T12:07:14;11.70;87.50
68215;DHT22;55036;52.138;5.236;2024-02-21T12:09:41;11.80;87.40
68215;DHT22;55036;52.138;5.236;2024-02-21T12:12:08;11.80;86.60
68215;DHT22;55036;52.138;5.236;2024-02-21T12:14:36;12.00;87.50
68215;DHT22;55036;52.138;5.236;2024-02-21T12:17:03;12.10;87.30
68215;DHT22;55036;52.138;5.236;2024-02-21T12:19:33;12.20;86.30
68215;DHT22;55036;52.138;5.236;2024-02-21T12:22:00;12.30;86.90
68215;DHT22;55036;52.138;5.236;2024-02-21T12:24:28;12.10;85.50
68215;DHT22;55036;52.138;5.236;2024-02-21T12:26:56;12.00;86.10
68215;DHT22;55036;52.138;5.236;2024-02-21T12:29:24;12.00;86.20
68215;DHT22;55036;52.138;5.236;2024-02-21T12:31:55;12.00;86.40
68215;DHT22;55036;52.138;5.236;2024-02-21T12:34:23;12.10;85.40
68215;DHT22;55036;52.138;5.236;2024-02-21T12:37:04;12.00;85.90
68215;DHT22;55036;52.138;5.236;2024-02-21T12:39:31;12.00;86.20
68215;DHT22;55036;52.138;5.236;2024-02-21T12:41:59;12.10;86.10
68215;DHT22;55036;52.138;5.236;2024-02-21T12:44:26;12.20;86.10
68215;DHT22;55036;52.138;5.236;2024-02-21T12:46:54;12.20;84.90
68215;DHT22;55036;52.138;5.236;2024-02-21T12:49:22;12.20;85.10
68215;DHT22;55036;52.138;5.236;2024-02-21T12:51:49;12.30;85.20
68215;DHT22;55036;52.138;5.236;2024-02-21T12:54:16;12.20;85.40
68215;DHT22;55036;52.138;5.236;2024-02-21T12:56:42;12.20;84.50
68215;DHT22;55036;52.138;5.236;2024-02-21T12:59:09;12.10;83.90
68215;DHT22;55036;52.138;5.236;2024-02-21T13:01:37;12.10;84.80
68215;DHT22;55036;52.138;5.236;2024-02-21T13:04:05;12.00;84.90
68215;DHT22;55036;52.138;5.236;2024-02-21T13:06:32;12.00;85.30
68215;DHT22;55036;52.138;5.236;2024-02-21T13:08:59;12.00;85.50
68215;DHT22;55036;52.138;5.236;2024-02-21T13:11:28;12.10;85.40
68215;DHT22;55036;52.138;5.236;2024-02-21T13:13:58;12.10;85.10
68215;DHT22;55036;52.138;5.236;2024-02-21T13:16:25;12.10;85.10
68215;DHT22;55036;52.138;5.236;2024-02-21T13:18:53;12.20;85.10
68215;DHT22;55036;52.138;5.236;2024-02-21T13:21:20;12.20;84.90
68215;DHT22;55036;52.138;5.236;2024-02-21T13:23:47;12.20;84.80
68215;DHT22;55036;52.138;5.236;2024-02-21T13:26:14;12.10;85.00
68215;DHT22;55036;52.138;5.236;2024-02-21T13:28:42;12.10;84.40
68215;DHT22;55036;52.138;5.236;2024-02-21T13:31:11;12.10;85.10
68215;DHT22;55036;52.138;5.236;2024-02-21T13:33:38;12.10;85.10
68215;DHT22;55036;52.138;5.236;2024-02-21T13:36:05;12.10;84.90
68215;DHT22;55036;52.138;5.236;2024-02-21T13:38:32;12.10;85.10
68215;DHT22;55036;52.138;5.236;2024-02-21T13:40:58;12.10;85.10
68215;DHT22;55036;52.138;5.236;2024-02-21T13:43:27;12.10;85.10
68215;DHT22;55036;52.138;5.236;2024-02-21T13:45:58;12.00;84.60
68215;DHT22;55036;52.138;5.236;2024-02-21T13:48:25;11.90;84.20
68215;DHT22;55036;52.138;5.236;2024-02-21T13:50:54;11.90;84.40
68215;DHT22;55036;52.138;5.236;2024-02-21T13:53:20;11.80;84.60
68215;DHT22;55036;52.138;5.236;2024-02-21T13:55:48;11.80;84.20
68215;DHT22;55036;52.138;5.236;2024-02-21T13:58:15;11.80;84.30
68215;DHT22;55036;52.138;5.236;2024-02-21T14:00:42;11.80;84.20
68215;DHT22;55036;52.138;5.236;2024-02-21T14:03:09;11.80;83.60
68215;DHT22;55036;52.138;5.236;2024-02-21T14:05:36;11.80;84.40
68215;DHT22;55036;52.138;5.236;2024-02-21T14:08:07;11.90;84.20
68215;DHT22;55036;52.138;5.236;2024-02-21T14:10:34;11.90;84.20
68215;DHT22;55036;52.138;5.236;2024-02-21T14:13:01;11.90;83.90
68215;DHT22;55036;52.138;5.236;2024-02-21T14:15:28;11.90;84.10
68215;DHT22;55036;52.138;5.236;2024-02-21T14:17:54;11.90;83.50
68215;DHT22;55036;52.138;5.236;2024-02-21T14:20:22;11.90;83.40
68215;DHT22;55036;52.138;5.236;2024-02-21T14:22:49;11.80;82.90
68215;DHT22;55036;52.138;5.236;2024-02-21T14:25:16;11.80;83.50
68215;DHT22;55036;52.138;5.236;2024-02-21T14:27:43;11.80;83.00
68215;DHT22;55036;52.138;5.236;2024-02-21T14:30:10;11.90;82.80
68215;DHT22;55036;52.138;5.236;2024-02-21T14:32:38;11.80;82.40
68215;DHT22;55036;52.138;5.236;2024-02-21T14:35:07;11.90;82.70
68215;DHT22;55036;52.138;5.236;2024-02-21T14:37:33;11.90;82.00
68215;DHT22;55036;52.138;5.236;2024-02-21T14:40:00;11.80;82.60
68215;DHT22;55036;52.138;5.236;2024-02-21T14:42:27;11.80;82.50
68215;DHT22;55036;52.138;5.236;2024-02-21T14:44:54;11.90;82.70
68215;DHT22;55036;52.138;5.236;2024-02-21T14:47:31;11.80;82.70
68215;DHT22;55036;52.138;5.236;2024-02-21T14:49:58;11.80;83.00
68215;DHT22;55036;52.138;5.236;2024-02-21T14:52:25;11.80;83.40
68215;DHT22;55036;52.138;5.236;2024-02-21T14:54:54;11.60;84.20
68215;DHT22;55036;52.138;5.236;2024-02-21T14:57:21;11.50;84.70
68215;DHT22;55036;52.138;5.236;2024-02-21T14:59:49;11.50;85.20
68215;DHT22;55036;52.138;5.236;2024-02-21T15:02:16;11.50;85.30
68215;DHT22;55036;52.138;5.236;2024-02-21T15:04:43;11.40;86.50
68215;DHT22;55036;52.138;5.236;2024-02-21T15:07:10;11.30;87.50
68215;DHT22;55036;52.138;5.236;2024-02-21T15:09:37;11.30;87.90
68215;DHT22;55036;52.138;5.236;2024-02-21T15:12:03;11.20;89.80
68215;DHT22;55036;52.138;5.236;2024-02-21T15:14:30;11.10;90.10
68215;DHT22;55036;52.138;5.236;2024-02-21T15:16:57;11.00;90.70
68215;DHT22;55036;52.138;5.236;2024-02-21T15:19:24;11.00;90.30
68215;DHT22;55036;52.138;5.236;2024-02-21T15:21:51;11.00;90.60
68215;DHT22;55036;52.138;5.236;2024-02-21T15:24:17;11.00;90.00
68215;DHT22;55036;52.138;5.236;2024-02-21T15:26:44;11.10;90.10
68215;DHT22;55036;52.138;5.236;2024-02-21T15:29:11;11.00;90.90
68215;DHT22;55036;52.138;5.236;2024-02-21T15:31:38;11.00;90.90
68215;DHT22;55036;52.138;5.236;2024-02-21T15:34:05;10.90;90.80